Aviation Digital Data Service (ADDS)

Output produced by TAFs form (1038 UTC 30 March 2015)
found at http://aviationweather.gov/adds/tafs/
 
KHOB 300520Z 3006/3106 13008KT P6SM BKN200